John Paul II International Airport Krakow-Balice Airport


Codes: EPKK/KRK
Name: John Paul II International Airport Krakow-Balice Airport
City: Krakow
Country: Poland
Elevation: 791 ft.
Website:
Wikipedia:

Photos at John Paul II International Airport Krakow-Balice Airport


   Photos courtesy of SpottingLog. You can add your own sightings and photos by signing up for a free trial today.



SP-LHB, 13-Sep-2022
© Thomas Baynes

013, 11-May-2022
© Thomas Baynes

SP-EQB, 20-Sep-2020
© Barry Higgott

OE-IJQ, 20-Sep-2020
© Barry Higgott

D-AEWJ, 20-Sep-2020
© Barry Higgott

SP-RSS, 20-Sep-2020
© Barry Higgott

HA-LVM, 20-Sep-2020
© Barry Higgott

SP-RKM, 20-Sep-2020
© Barry Higgott


Weather at John Paul II International Airport Krakow-Balice Airport


Time (UTC)DescriptionTempratureWindCloud coverageVisibilityPressureHumidity
21-Feb-2024 03:00Broken Clouds4°C9 mph, W75%10000m1022hPa91%
21-Feb-2024 06:00Broken Clouds4°C7 mph, SW80%10000m1023hPa91%
21-Feb-2024 09:00Overcast Clouds6°C9 mph, SW92%10000m1022hPa77%
21-Feb-2024 12:00Overcast Clouds8°C13 mph, SW99%10000m1021hPa67%
21-Feb-2024 15:00Overcast Clouds7°C11 mph, SW100%10000m1019hPa75%
21-Feb-2024 18:00Overcast Clouds6°C9 mph, SW97%10000m1019hPa80%
21-Feb-2024 21:00Overcast Clouds6°C7 mph, SW98%10000m1017hPa84%
22-Feb-2024 00:00Overcast Clouds4°C4 mph, S99%10000m1015hPa84%
22-Feb-2024 03:00Overcast Clouds4°C4 mph, S100%10000m1013hPa84%
22-Feb-2024 06:00Overcast Clouds4°C4 mph, S100%10000m1011hPa81%
22-Feb-2024 09:00Overcast Clouds7°C4 mph, SE100%10000m1009hPa74%
22-Feb-2024 12:00Overcast Clouds11°C11 mph, S100%10000m1006hPa58%
22-Feb-2024 15:00Overcast Clouds9°C9 mph, S100%10000m1004hPa65%
22-Feb-2024 18:00Overcast Clouds7°C4 mph, S100%10000m1003hPa75%
22-Feb-2024 21:00Overcast Clouds7°C7 mph, S99%10000m1002hPa79%
23-Feb-2024 00:00Overcast Clouds7°C4 mph, SE99%10000m1001hPa83%
23-Feb-2024 03:00Overcast Clouds7°C7 mph, S100%10000m1000hPa84%
23-Feb-2024 06:00Overcast Clouds7°C4 mph, SW100%10000m1001hPa83%
23-Feb-2024 09:00Light Rain7°C2 mph, S100%10000m1003hPa93%
23-Feb-2024 12:00Light Rain7°C0 mph, S100%10000m1003hPa94%
23-Feb-2024 15:00Light Rain7°C0 mph, SW100%10000m1004hPa95%
23-Feb-2024 18:00Overcast Clouds7°C4 mph, SE100%10000m1004hPa93%
23-Feb-2024 21:00Overcast Clouds7°C7 mph, E100%10000m1004hPa91%
24-Feb-2024 00:00Overcast Clouds7°C7 mph, SE100%10000m1002hPa87%
24-Feb-2024 03:00Overcast Clouds7°C9 mph, SE100%10000m1001hPa85%
24-Feb-2024 06:00Overcast Clouds8°C11 mph, SE100%10000m1001hPa79%
24-Feb-2024 09:00Overcast Clouds12°C9 mph, SW91%10000m1003hPa66%
24-Feb-2024 12:00Overcast Clouds9°C11 mph, W96%10000m1007hPa72%
24-Feb-2024 15:00Overcast Clouds9°C2 mph, N100%10000m1009hPa72%
24-Feb-2024 18:00Overcast Clouds7°C2 mph, NE100%10000m1011hPa80%
24-Feb-2024 21:00Overcast Clouds7°C4 mph, E100%10000m1012hPa83%
25-Feb-2024 00:00Light Rain6°C4 mph, E100%10000m1011hPa86%
25-Feb-2024 03:00Overcast Clouds7°C2 mph, E100%10000m1010hPa88%
25-Feb-2024 06:00Light Rain7°C0 mph, SE100%10000m1010hPa90%
25-Feb-2024 09:00Overcast Clouds8°C2 mph, E100%10000m1010hPa85%
25-Feb-2024 12:00Overcast Clouds8°C4 mph, E100%10000m1008hPa84%
25-Feb-2024 15:00Overcast Clouds9°C2 mph, S100%10000m1007hPa85%
25-Feb-2024 18:00Overcast Clouds8°C2 mph, W100%10000m1007hPa92%
25-Feb-2024 21:00Light Rain7°C4 mph, W100%10000m1006hPa96%
26-Feb-2024 00:00Light Rain6°C7 mph, W100%10000m1008hPa93%